Time;durP1;ratioP1;P1;durP2;ratioP2;P2;SDS_P1;SDS_P2;PMS_P1;PMS_P2;Temp;Humidity;BMP_temperature;BMP_pressure;BME280_temperature;BME280_humidity;BME280_pressure;Samples;Min_cycle;Max_cycle;Signal;HPM_P1;HPM_P2
2021/05/07 00:01:54;;;;;;;8.10;3.10;;;;;;;-144.99;nan;52427.72;5026060;28;20641;-63
2021/05/07 00:04:24;;;;;;;7.57;2.17;;;;;;;-144.99;nan;52421.59;5026446;28;21011;-61
2021/05/07 00:06:51;;;;;;;5.90;1.90;;;;;;;-144.99;nan;52382.88;5028315;28;20636;-61
2021/05/07 00:09:18;;;;;;;8.63;1.77;;;;;;;-144.99;nan;52403.25;5019113;28;21245;-65
2021/05/07 00:11:44;;;;;;;5.37;1.90;;;;;;;-144.99;nan;52431.78;5025899;28;20632;-63
2021/05/07 00:14:11;;;;;;;7.23;2.50;;;;;;;-144.99;nan;52378.78;5021557;28;21122;-64
2021/05/07 00:16:38;;;;;;;3.63;1.80;;;;;;;-144.99;nan;52419.56;5020658;28;20659;-65
2021/05/07 00:19:05;;;;;;;4.87;1.90;;;;;;;-144.99;nan;52397.13;5029891;28;20664;-63
2021/05/07 00:21:32;;;;;;;7.07;1.83;;;;;;;-144.99;nan;52415.47;5027335;28;20648;-63
2021/05/07 00:23:58;;;;;;;6.63;2.43;;;;;;;-144.99;nan;52403.25;5030116;28;20651;-63
2021/05/07 00:26:27;;;;;;;5.03;1.87;;;;;;;-144.99;nan;52407.31;5029364;28;21005;-63
2021/05/07 00:28:57;;;;;;;3.33;2.00;;;;;;;-144.99;nan;52431.78;5026891;28;20865;-62
2021/05/07 00:31:26;;;;;;;6.37;2.03;;;;;;;-144.99;nan;52386.94;5028015;28;21216;-61
2021/05/07 00:33:53;;;;;;;6.70;2.20;;;;;;;-144.99;nan;52399.19;5027176;28;21204;-61
2021/05/07 00:36:19;;;;;;;4.00;2.17;;;;;;;-144.99;nan;52399.19;5021935;28;21196;-61
2021/05/07 00:38:45;;;;;;;7.93;2.63;;;;;;;-144.99;nan;52423.63;5028104;28;20641;-63
2021/05/07 00:41:11;;;;;;;5.77;2.53;;;;;;;-144.99;nan;52444.03;5028940;28;20640;-61
2021/05/07 00:43:38;;;;;;;2.83;1.77;;;;;;;-144.99;nan;52395.09;5028260;28;20727;-63
2021/05/07 00:46:04;;;;;;;8.40;1.43;;;;;;;-144.99;nan;52407.31;5028054;28;20730;-64
2021/05/07 00:48:30;;;;;;;3.70;1.50;;;;;;;-144.99;nan;52386.94;5024110;28;20656;-64
2021/05/07 00:50:57;;;;;;;5.47;2.13;;;;;;;-144.99;nan;52362.50;5022619;28;20218;-64
2021/05/07 00:53:27;;;;;;;3.60;2.00;;;;;;;-144.99;nan;52407.31;5024135;28;20202;-64
2021/05/07 00:55:53;;;;;;;11.70;4.43;;;;;;;-144.99;nan;52425.66;5017732;28;20657;-64
2021/05/07 00:58:20;;;;;;;12.07;2.20;;;;;;;-144.99;nan;52419.56;5021179;28;20664;-59
2021/05/07 01:00:53;;;;;;;8.60;2.10;;;;;;;-144.99;nan;52423.63;5018639;28;20651;-60
2021/05/07 01:03:20;;;;;;;3.67;2.30;;;;;;;-144.99;nan;52403.25;5024177;28;20628;-60
2021/05/07 01:05:46;;;;;;;3.47;2.73;;;;;;;-144.99;nan;52415.47;5022954;28;20664;-61
2021/05/07 01:08:14;;;;;;;7.10;3.17;;;;;;;-144.99;nan;52391.03;5022684;28;21006;-60
2021/05/07 01:10:40;;;;;;;6.27;2.17;;;;;;;-144.99;nan;52429.75;5018239;28;21074;-60
2021/05/07 01:13:06;;;;;;;5.43;2.13;;;;;;;-144.99;nan;52399.19;5024825;28;20648;-60
2021/05/07 01:15:32;;;;;;;7.43;1.80;;;;;;;-144.99;nan;52391.03;5021764;28;20715;-61
2021/05/07 01:17:59;;;;;;;5.97;2.27;;;;;;;-144.99;nan;52456.25;5024275;28;21220;-59
2021/05/07 01:20:28;;;;;;;9.57;2.90;;;;;;;-144.99;nan;52403.25;5021674;28;20663;-61
2021/05/07 01:22:55;;;;;;;8.30;2.70;;;;;;;-144.99;nan;52403.25;5029664;28;21220;-60
2021/05/07 01:25:23;;;;;;;4.43;2.33;;;;;;;-144.99;nan;52397.13;5030626;28;20668;-60
2021/05/07 01:27:52;;;;;;;9.53;2.77;;;;;;;-144.99;nan;52446.06;5027682;28;20636;-60
2021/05/07 01:30:21;;;;;;;4.93;2.40;;;;;;;-144.99;nan;52427.72;5025575;28;21039;-64
2021/05/07 01:32:48;;;;;;;6.10;2.60;;;;;;;-144.99;nan;52393.06;5028518;28;21392;-63
2021/05/07 01:35:17;;;;;;;6.10;2.43;;;;;;;-144.99;nan;52407.31;5029082;28;20660;-62
2021/05/07 01:37:46;;;;;;;5.77;2.10;;;;;;;-144.99;nan;52421.59;5032856;28;20641;-62
2021/05/07 01:40:14;;;;;;;5.87;2.50;;;;;;;-144.99;nan;52403.25;5028765;28;20668;-61
2021/05/07 01:42:40;;;;;;;3.40;1.63;;;;;;;-144.99;nan;52391.03;5032037;28;21217;-61
2021/05/07 01:45:08;;;;;;;4.80;1.90;;;;;;;-144.99;nan;52415.47;5029090;28;20679;-61
2021/05/07 01:47:35;;;;;;;3.33;1.97;;;;;;;-144.99;nan;52407.31;5027842;28;20207;-61
2021/05/07 01:50:01;;;;;;;3.77;2.10;;;;;;;-144.99;nan;52391.03;5032972;28;20668;-61
2021/05/07 01:52:27;;;;;;;5.37;2.33;;;;;;;-144.99;nan;52415.47;5031852;28;20644;-61
2021/05/07 01:54:57;;;;;;;2.40;1.60;;;;;;;-144.99;nan;52376.75;5032412;28;20635;-61
2021/05/07 01:57:28;;;;;;;5.77;2.23;;;;;;;-144.99;nan;52419.56;5031207;28;20632;-62
2021/05/07 01:59:54;;;;;;;5.30;1.90;;;;;;;-144.99;nan;52407.31;5031111;28;21104;-61
2021/05/07 02:02:20;;;;;;;4.63;1.50;;;;;;;-144.99;nan;52444.03;5029346;28;20628;-61
2021/05/07 02:04:46;;;;;;;8.20;2.13;;;;;;;-144.99;nan;52366.56;5031332;28;20202;-62
2021/05/07 02:07:12;;;;;;;4.00;2.23;;;;;;;-144.99;nan;52395.09;5030191;28;20644;-62
2021/05/07 02:09:39;;;;;;;3.87;1.70;;;;;;;-144.99;nan;52427.72;5026932;28;20675;-61
2021/05/07 02:12:07;;;;;;;3.53;1.80;;;;;;;-144.99;nan;52444.03;5029162;28;20632;-62
2021/05/07 02:14:39;;;;;;;3.30;2.30;;;;;;;-144.99;nan;52409.38;5030795;28;20979;-61
2021/05/07 02:17:05;;;;;;;6.47;2.10;;;;;;;-144.99;nan;52419.56;5029426;28;20633;-60
2021/05/07 02:19:35;;;;;;;7.00;3.10;;;;;;;-144.99;nan;52391.03;5029619;28;20719;-60
2021/05/07 02:22:01;;;;;;;8.37;2.50;;;;;;;-144.99;nan;52419.56;5028826;28;20651;-59
2021/05/07 02:24:29;;;;;;;9.73;2.10;;;;;;;-144.99;nan;52384.91;5031380;28;20636;-59
2021/05/07 02:26:55;;;;;;;5.07;1.90;;;;;;;-144.99;nan;52368.59;5030568;28;20660;-59
2021/05/07 02:29:22;;;;;;;5.53;2.33;;;;;;;-144.99;nan;52397.13;5029961;28;20801;-60
2021/05/07 02:31:48;;;;;;;11.20;2.60;;;;;;;-144.99;nan;52431.78;5027877;28;20641;-59
2021/05/07 02:34:15;;;;;;;8.30;2.80;;;;;;;-144.99;nan;52417.53;5026933;28;20640;-59
2021/05/07 02:36:41;;;;;;;4.67;2.57;;;;;;;-144.99;nan;52423.63;5025885;28;21244;-60
2021/05/07 02:39:09;;;;;;;4.37;2.37;;;;;;;-144.99;nan;52456.25;5027166;28;20664;-59
2021/05/07 02:41:36;;;;;;;7.97;2.80;;;;;;;-144.99;nan;52362.50;5025205;28;20629;-58
2021/05/07 02:44:04;;;;;;;5.83;2.90;;;;;;;-144.99;nan;52403.25;5027435;28;21165;-58
2021/05/07 02:46:32;;;;;;;6.10;2.90;;;;;;;-144.99;nan;52415.47;5026773;28;21069;-60
2021/05/07 02:48:58;;;;;;;6.73;2.93;;;;;;;-144.99;nan;52386.94;5027793;28;20665;-58
2021/05/07 02:51:24;;;;;;;5.43;2.93;;;;;;;-144.99;nan;52407.31;5025419;28;21201;-59
2021/05/07 02:53:50;;;;;;;4.70;2.10;;;;;;;-144.99;nan;52384.91;5028081;28;20647;-60
2021/05/07 02:56:16;;;;;;;6.50;3.23;;;;;;;-144.99;nan;52425.66;5024478;28;20877;-59
2021/05/07 02:58:45;;;;;;;8.00;2.97;;;;;;;-144.99;nan;52419.56;5026609;28;20659;-57
2021/05/07 03:01:11;;;;;;;6.47;2.53;;;;;;;-144.99;nan;52374.72;5023026;28;20213;-57
2021/05/07 03:03:38;;;;;;;8.80;2.50;;;;;;;-144.99;nan;52427.72;5023226;28;20664;-61
2021/05/07 03:06:04;;;;;;;4.53;2.80;;;;;;;-144.99;nan;52403.25;5023862;28;20284;-58
2021/05/07 03:08:30;;;;;;;4.27;2.00;;;;;;;-144.99;nan;52393.06;5027986;28;20761;-59
2021/05/07 03:10:59;;;;;;;5.70;2.47;;;;;;;-144.99;nan;52427.72;5027291;28;20644;-59
2021/05/07 03:13:28;;;;;;;2.43;1.40;;;;;;;-144.99;nan;52372.69;5023287;28;21010;-59
2021/05/07 03:15:54;;;;;;;2.27;1.50;;;;;;;-144.99;nan;52407.31;5022655;28;20659;-59
2021/05/07 03:18:21;;;;;;;6.70;1.57;;;;;;;-144.99;nan;52378.78;5026526;28;20660;-62
2021/05/07 03:20:50;;;;;;;5.20;2.03;;;;;;;-144.99;nan;52382.88;5027168;28;20636;-62
2021/05/07 03:23:16;;;;;;;9.40;2.20;;;;;;;-144.99;nan;52419.56;5026098;28;20663;-61
2021/05/07 03:25:42;;;;;;;7.40;2.67;;;;;;;-144.99;nan;52427.72;5024410;28;20652;-60
2021/05/07 03:28:10;;;;;;;3.90;2.10;;;;;;;-144.99;nan;52413.44;5022539;28;20645;-62
2021/05/07 03:30:36;;;;;;;5.87;2.70;;;;;;;-144.99;nan;52399.19;5021887;28;20644;-61
2021/05/07 03:33:04;;;;;;;6.73;2.70;;;;;;;-144.99;nan;52415.47;5025900;28;21233;-62
2021/05/07 03:35:31;;;;;;;4.80;2.10;;;;;;;-144.99;nan;52413.44;5024744;28;20637;-62
2021/05/07 03:38:01;;;;;;;4.60;2.63;;;;;;;-144.99;nan;52391.03;5026635;28;20682;-61
2021/05/07 03:40:27;;;;;;;4.90;2.67;;;;;;;-144.99;nan;52423.63;5023364;28;20641;-61
2021/05/07 03:42:53;;;;;;;7.50;3.30;;;;;;;-144.99;nan;52386.94;5022908;28;20648;-61
2021/05/07 03:45:25;;;;;;;7.60;2.40;;;;;;;-144.99;nan;52403.25;5024702;28;21090;-61
2021/05/07 03:47:54;;;;;;;9.40;2.10;;;;;;;-144.99;nan;52386.94;5023869;28;20636;-60
2021/05/07 03:50:20;;;;;;;3.80;2.07;;;;;;;-144.99;nan;52444.03;5022057;28;20702;-60
2021/05/07 03:52:46;;;;;;;5.23;3.53;;;;;;;-144.99;nan;52439.94;5022969;28;20640;-61
2021/05/07 03:55:14;;;;;;;8.33;3.03;;;;;;;-144.99;nan;52405.28;5027018;28;20645;-61
2021/05/07 03:57:41;;;;;;;7.03;3.50;;;;;;;-144.99;nan;52415.47;5026124;28;20644;-61
2021/05/07 04:00:10;;;;;;;12.13;4.17;;;;;;;-144.99;nan;52403.25;5026931;28;20878;-61
2021/05/07 04:02:36;;;;;;;5.67;3.50;;;;;;;-144.99;nan;52403.25;5028125;28;20637;-61
2021/05/07 04:05:02;;;;;;;10.23;5.53;;;;;;;-144.99;nan;52452.16;5029002;28;20711;-60
2021/05/07 04:07:29;;;;;;;3.57;2.60;;;;;;;-144.99;nan;52395.09;5023530;28;20634;-60
2021/05/07 04:09:56;;;;;;;3.67;2.43;;;;;;;-144.99;nan;52374.72;5031726;28;20649;-61
2021/05/07 04:15:07;;;;;;;5.10;2.27;;;;;;;-144.99;nan;52415.47;5021411;28;20665;-60
2021/05/07 04:17:35;;;;;;;3.73;1.47;;;;;;;-144.99;nan;52407.31;5040542;22;21163;-60
2021/05/07 04:20:06;;;;;;;9.90;1.60;;;;;;;-144.99;nan;52378.78;5028617;28;20668;-60
2021/05/07 04:22:40;;;;;;;4.87;1.47;;;;;;;-144.99;nan;52403.25;5023628;28;20641;-60
2021/05/07 04:25:11;;;;;;;2.07;1.63;;;;;;;-144.99;nan;52423.63;5025626;28;20624;-59
2021/05/07 04:27:41;;;;;;;3.80;1.30;;;;;;;-144.99;nan;52423.63;5023323;28;20625;-61
2021/05/07 04:30:11;;;;;;;1.77;1.13;;;;;;;-144.99;nan;52388.97;5023654;28;20711;-57
2021/05/07 04:32:40;;;;;;;5.73;1.20;;;;;;;-144.99;nan;52431.78;5023275;28;20641;-57
2021/05/07 04:35:06;;;;;;;5.87;2.43;;;;;;;-144.99;nan;52395.09;5025829;28;20628;-56
2021/05/07 04:37:32;;;;;;;2.20;1.30;;;;;;;-144.99;nan;52378.78;5024150;28;20641;-55
2021/05/07 04:40:01;;;;;;;4.00;1.80;;;;;;;-144.99;nan;52399.19;5023135;28;20660;-56
2021/05/07 04:42:30;;;;;;;2.33;1.20;;;;;;;-144.99;nan;52429.75;5024731;28;20637;-57
2021/05/07 04:44:56;;;;;;;4.83;1.80;;;;;;;-144.99;nan;52399.19;5025410;28;20723;-56
2021/05/07 04:47:25;;;;;;;2.93;1.57;;;;;;;-144.99;nan;52386.94;5025334;28;20640;-56
2021/05/07 04:49:51;;;;;;;3.57;1.53;;;;;;;-144.99;nan;52407.31;5023361;28;20660;-56
2021/05/07 04:52:17;;;;;;;2.97;1.23;;;;;;;-144.99;nan;52374.72;5021591;28;20648;-57
2021/05/07 04:54:43;;;;;;;3.23;1.03;;;;;;;-144.99;nan;52384.91;5024545;28;20203;-56
2021/05/07 04:57:09;;;;;;;1.47;1.00;;;;;;;-144.99;nan;52413.44;5023478;28;20648;-57
2021/05/07 04:59:38;;;;;;;2.07;0.97;;;;;;;-144.99;nan;52386.94;5022943;28;20688;-57
2021/05/07 05:02:05;;;;;;;5.93;1.80;;;;;;;-144.99;nan;52423.63;5025134;28;20645;-58
2021/05/07 05:04:37;;;;;;;5.40;3.00;;;;;;;-144.99;nan;52409.38;5024897;28;20698;-58
2021/05/07 05:07:07;;;;;;;2.40;1.50;;;;;;;-144.99;nan;52407.31;5020261;28;20660;-57
2021/05/07 05:09:42;;;;;;;2.33;1.30;;;;;;;-144.99;nan;52342.09;5021921;28;20760;-58
2021/05/07 05:12:09;;;;;;;3.17;1.13;;;;;;;-144.99;nan;52391.03;5023998;28;21176;-58
2021/05/07 05:14:35;;;;;;;1.27;0.80;;;;;;;-144.99;nan;52399.19;5024752;28;21316;-57
2021/05/07 05:17:01;;;;;;;1.60;1.13;;;;;;;-144.99;nan;52397.13;5022583;28;20640;-61
2021/05/07 05:19:28;;;;;;;3.27;1.67;;;;;;;-144.99;nan;52386.94;5023458;28;20683;-60
2021/05/07 05:21:56;;;;;;;1.63;1.33;;;;;;;-144.99;nan;52407.31;5023823;28;20783;-59
2021/05/07 05:24:23;;;;;;;3.30;1.20;;;;;;;-144.99;nan;52399.19;5022952;28;20712;-59
2021/05/07 05:26:51;;;;;;;3.27;1.13;;;;;;;-144.99;nan;52370.63;5020892;28;20661;-60
2021/05/07 05:29:17;;;;;;;1.20;0.90;;;;;;;-144.99;nan;52395.09;5027046;28;20676;-60
2021/05/07 05:31:43;;;;;;;1.47;0.70;;;;;;;-144.99;nan;52399.19;5024201;28;20687;-59
2021/05/07 05:34:09;;;;;;;2.17;1.03;;;;;;;-144.99;nan;52386.94;5023141;28;21072;-59
2021/05/07 05:36:36;;;;;;;1.57;0.90;;;;;;;-144.99;nan;52388.97;5021347;28;20640;-59
2021/05/07 05:39:05;;;;;;;4.40;1.33;;;;;;;-144.99;nan;52407.31;5022842;28;20664;-60
2021/05/07 05:41:34;;;;;;;3.57;1.90;;;;;;;-144.99;nan;52354.34;5022969;28;20652;-59
2021/05/07 05:44:03;;;;;;;1.70;1.07;;;;;;;-144.99;nan;52370.63;5024243;28;20655;-60
2021/05/07 05:46:32;;;;;;;3.60;1.40;;;;;;;-144.99;nan;52358.41;5025365;28;20665;-60
2021/05/07 05:48:58;;;;;;;5.03;1.93;;;;;;;-144.99;nan;52407.31;5022414;28;20737;-60
2021/05/07 05:51:26;;;;;;;1.80;1.20;;;;;;;-144.99;nan;52378.78;5023813;28;20682;-69
2021/05/07 05:53:56;;;;;;;7.57;1.90;;;;;;;-144.99;nan;52354.34;5024628;28;21204;-69
2021/05/07 05:56:22;;;;;;;9.13;1.73;;;;;;;-144.99;nan;52386.94;5025258;28;20640;-67
2021/05/07 05:58:54;;;;;;;11.33;2.03;;;;;;;-144.99;nan;52374.72;5021781;28;20699;-68
2021/05/07 06:01:23;;;;;;;5.07;1.87;;;;;;;-144.99;nan;52342.09;5021811;28;20951;-67
2021/05/07 06:03:49;;;;;;;4.27;1.87;;;;;;;-144.99;nan;52386.94;5024197;28;20648;-68
2021/05/07 06:06:15;;;;;;;1.97;1.37;;;;;;;-144.99;nan;52362.50;5023572;28;20656;-68
2021/05/07 06:08:44;;;;;;;3.90;2.10;;;;;;;-144.99;nan;52342.09;5031497;28;21017;-68
2021/05/07 06:11:11;;;;;;;3.33;1.73;;;;;;;-144.99;nan;52386.94;5035522;28;20950;-68
2021/05/07 06:13:37;;;;;;;5.27;2.33;;;;;;;-144.99;nan;52368.59;5030926;28;20956;-69
2021/05/07 06:16:04;;;;;;;6.93;1.93;;;;;;;-144.99;nan;52374.72;5033020;28;20616;-69
2021/05/07 06:18:30;;;;;;;2.20;1.30;;;;;;;-144.99;nan;52423.63;5028242;28;20717;-68
2021/05/07 06:20:59;;;;;;;2.93;1.87;;;;;;;-144.99;nan;52370.63;5034349;28;20625;-69
2021/05/07 06:23:25;;;;;;;3.30;1.43;;;;;;;-144.99;nan;52366.56;5026900;28;20644;-68
2021/05/07 06:25:51;;;;;;;3.10;1.53;;;;;;;-144.99;nan;52386.94;5040719;28;20932;-68
2021/05/07 06:28:21;;;;;;;3.77;2.30;;;;;;;-144.99;nan;52342.09;5040032;28;20655;-68
2021/05/07 06:30:53;;;;;;;4.70;2.97;;;;;;;-144.99;nan;52382.88;5026827;28;20655;-68
2021/05/07 06:33:22;;;;;;;9.50;2.40;;;;;;;-144.99;nan;52346.19;5031422;28;21169;-68
2021/05/07 06:35:48;;;;;;;2.03;1.70;;;;;;;-144.99;nan;52354.34;5037708;28;20619;-70
2021/05/07 06:38:14;;;;;;;2.17;1.50;;;;;;;-144.99;nan;52399.19;5034464;28;20629;-69
2021/05/07 06:40:43;;;;;;;2.27;1.20;;;;;;;-144.99;nan;52370.63;5038657;28;20211;-68
2021/05/07 06:43:14;;;;;;;3.50;1.70;;;;;;;-144.99;nan;52352.28;5036060;28;21200;-68
2021/05/07 06:45:43;;;;;;;2.67;1.60;;;;;;;-144.99;nan;52350.25;5036224;28;20791;-69
2021/05/07 06:48:13;;;;;;;3.63;1.97;;;;;;;-144.99;nan;52360.44;5035391;28;21251;-68
2021/05/07 06:50:42;;;;;;;2.37;1.40;;;;;;;-144.99;nan;52358.41;5039566;28;20629;-68
2021/05/07 06:53:08;;;;;;;9.57;2.37;;;;;;;-144.99;nan;52370.63;5032263;28;20678;-68
2021/05/07 06:55:37;;;;;;;4.23;1.97;;;;;;;-144.99;nan;52358.41;5042091;28;20199;-68
2021/05/07 06:58:03;;;;;;;6.00;3.83;;;;;;;-144.99;nan;52338.03;5040229;28;20202;-68
2021/05/07 07:00:29;;;;;;;1.30;1.00;;;;;;;-144.99;nan;52350.25;5036668;28;20616;-69
2021/05/07 07:02:59;;;;;;;2.83;1.60;;;;;;;-144.99;nan;52325.81;5040022;28;20620;-68
2021/05/07 07:05:28;;;;;;;2.63;1.43;;;;;;;-144.99;nan;52393.06;5036313;28;20451;-68
2021/05/07 07:07:54;;;;;;;2.23;1.40;;;;;;;-144.99;nan;52388.97;5033343;28;20256;-68
2021/05/07 07:10:21;;;;;;;4.83;0.93;;;;;;;-144.99;nan;52386.94;5037060;28;20197;-68
2021/05/07 07:12:47;;;;;;;2.83;1.60;;;;;;;-144.99;nan;52342.09;5041047;28;20605;-69
2021/05/07 07:15:14;;;;;;;3.23;1.20;;;;;;;-144.99;nan;52350.25;5039749;28;20627;-69
2021/05/07 07:17:43;;;;;;;3.50;1.20;;;;;;;-144.99;nan;52366.56;5039396;28;20213;-68
2021/05/07 07:20:11;;;;;;;3.80;1.10;;;;;;;-144.99;nan;52358.41;5030240;28;20700;-68
2021/05/07 07:22:37;;;;;;;2.30;0.90;;;;;;;-144.99;nan;52350.25;5022830;28;20675;-68
2021/05/07 07:25:04;;;;;;;1.77;1.37;;;;;;;-144.99;nan;52374.72;5042103;28;20197;-68
2021/05/07 07:27:34;;;;;;;3.13;1.70;;;;;;;-144.99;nan;52376.75;5032127;28;20229;-70
2021/05/07 07:30:00;;;;;;;2.07;1.70;;;;;;;-144.99;nan;52354.34;5034982;28;20718;-69
2021/05/07 07:32:26;;;;;;;5.57;1.33;;;;;;;-144.99;nan;52309.50;5031853;28;20202;-68
2021/05/07 07:34:55;;;;;;;4.67;2.10;;;;;;;-144.99;nan;52350.25;5032851;28;20397;-68
2021/05/07 07:37:22;;;;;;;3.27;0.93;;;;;;;-144.99;nan;52329.88;5034420;28;20206;-69
2021/05/07 07:39:48;;;;;;;3.73;1.33;;;;;;;-144.99;nan;52346.19;5030324;28;20226;-68
2021/05/07 07:42:14;;;;;;;2.50;1.63;;;;;;;-144.99;nan;52366.56;5040653;28;20210;-68
2021/05/07 07:44:40;;;;;;;3.83;0.63;;;;;;;-144.99;nan;52342.09;5037893;28;20206;-68
2021/05/07 07:47:07;;;;;;;3.20;1.10;;;;;;;-144.99;nan;52374.72;5035427;28;20288;-68
2021/05/07 07:49:33;;;;;;;2.60;1.20;;;;;;;-144.99;nan;52370.63;5033985;28;20757;-67
2021/05/07 07:52:02;;;;;;;5.67;1.10;;;;;;;-144.99;nan;52411.41;5032194;28;20210;-68
2021/05/07 07:54:29;;;;;;;4.03;1.73;;;;;;;-144.99;nan;52350.25;5038536;28;20212;-67
2021/05/07 07:56:58;;;;;;;2.33;0.83;;;;;;;-144.99;nan;52382.88;5028337;28;20203;-67
2021/05/07 07:59:24;;;;;;;2.23;0.70;;;;;;;-144.99;nan;52403.25;5029807;28;21026;-68
2021/05/07 08:01:50;;;;;;;1.70;0.80;;;;;;;-144.99;nan;52395.09;5040631;28;20557;-68
2021/05/07 08:04:17;;;;;;;3.47;1.23;;;;;;;-144.99;nan;52370.63;5033158;28;20679;-67
2021/05/07 08:06:47;;;;;;;1.83;1.20;;;;;;;-144.99;nan;52378.78;5033918;28;20661;-67
2021/05/07 08:09:18;;;;;;;3.67;1.70;;;;;;;-144.99;nan;52338.03;5030272;28;20648;-67
2021/05/07 08:11:50;;;;;;;3.63;1.37;;;;;;;-144.99;nan;52325.81;5033974;28;20626;-68
2021/05/07 08:14:19;;;;;;;2.87;1.07;;;;;;;-144.99;nan;52382.88;5034276;28;21108;-69
2021/05/07 08:16:49;;;;;;;1.97;1.33;;;;;;;-144.99;nan;52356.38;5037550;28;20613;-69
2021/05/07 08:19:15;;;;;;;3.37;1.40;;;;;;;-144.99;nan;52386.94;5035146;28;20660;-69
2021/05/07 08:21:42;;;;;;;2.03;0.90;;;;;;;-144.99;nan;52333.94;5030751;28;20631;-69
2021/05/07 08:24:09;;;;;;;4.10;1.77;;;;;;;-144.99;nan;52366.56;5030234;28;20625;-68
2021/05/07 08:26:35;;;;;;;3.07;1.90;;;;;;;-144.99;nan;52350.25;5039311;28;20226;-68
2021/05/07 08:29:03;;;;;;;3.83;0.83;;;;;;;-144.99;nan;52331.91;5035053;28;20245;-68
2021/05/07 08:31:29;;;;;;;3.27;1.13;;;;;;;-144.99;nan;52333.94;5029179;28;20724;-68
2021/05/07 08:33:55;;;;;;;1.60;0.90;;;;;;;-144.99;nan;52360.44;5030017;28;20202;-68
2021/05/07 08:36:26;;;;;;;3.10;1.13;;;;;;;-144.99;nan;52382.88;5036717;28;20235;-68
2021/05/07 08:38:52;;;;;;;1.97;1.30;;;;;;;-144.99;nan;52344.16;5031668;28;20225;-68
2021/05/07 08:41:18;;;;;;;2.87;1.30;;;;;;;-144.99;nan;52317.66;5035879;28;20224;-69
2021/05/07 08:43:49;;;;;;;3.50;1.93;;;;;;;-144.99;nan;52309.50;5032295;28;20736;-69
2021/05/07 08:46:16;;;;;;;2.00;1.30;;;;;;;-144.99;nan;52252.44;5039702;28;20596;-69
2021/05/07 08:48:45;;;;;;;2.90;1.83;;;;;;;-144.99;nan;52289.13;5035037;28;20588;-69
2021/05/07 08:51:14;;;;;;;4.50;1.30;;;;;;;-144.99;nan;52338.03;5033294;28;20419;-69
2021/05/07 08:53:41;;;;;;;4.00;1.20;;;;;;;-144.99;nan;52325.81;5026833;28;20201;-70
2021/05/07 08:56:08;;;;;;;2.43;0.77;;;;;;;-144.99;nan;52358.41;5035077;28;20210;-68
2021/05/07 08:58:38;;;;;;;1.50;1.30;;;;;;;-144.99;nan;52333.94;5035555;28;20264;-68
2021/05/07 09:01:07;;;;;;;1.30;0.90;;;;;;;-144.99;nan;52321.72;5033294;28;20263;-68
2021/05/07 09:03:46;;;;;;;2.07;1.20;;;;;;;-144.99;nan;52333.94;5036309;28;20285;-68
2021/05/07 09:06:20;;;;;;;1.77;1.17;;;;;;;-144.99;nan;52338.03;5028181;28;20241;-68
2021/05/07 09:08:47;;;;;;;1.23;0.93;;;;;;;-144.99;nan;52309.50;5029776;28;20935;-69
2021/05/07 09:11:17;;;;;;;2.20;1.20;;;;;;;-144.99;nan;52362.50;5033136;28;20610;-69
2021/05/07 09:13:43;;;;;;;4.40;1.97;;;;;;;-144.99;nan;52325.81;5024157;28;20779;-69
2021/05/07 09:16:15;;;;;;;2.27;1.30;;;;;;;-144.99;nan;52313.56;5032613;28;20226;-69
2021/05/07 09:18:46;;;;;;;8.70;4.30;;;;;;;-144.99;nan;52293.19;5039085;28;20270;-68
2021/05/07 09:21:16;;;;;;;1.93;1.33;;;;;;;-144.99;nan;52311.53;5031677;28;20758;-69
2021/05/07 09:23:43;;;;;;;3.03;1.43;;;;;;;-144.99;nan;52321.72;5030784;28;20211;-69
2021/05/07 09:26:11;;;;;;;6.03;1.87;;;;;;;-144.99;nan;52270.78;5039972;28;20251;-69
2021/05/07 09:28:50;;;;;;;3.53;1.67;;;;;;;-144.99;nan;52297.25;5037627;28;20696;-69
2021/05/07 09:31:24;;;;;;;3.23;1.40;;;;;;;-144.99;nan;52317.66;5032871;28;20217;-69
2021/05/07 09:33:54;;;;;;;3.27;1.17;;;;;;;-144.99;nan;52313.56;5030911;28;20206;-70
2021/05/07 09:36:24;;;;;;;3.20;1.60;;;;;;;-144.99;nan;52289.13;5037254;28;20206;-69
2021/05/07 09:38:50;;;;;;;3.77;1.07;;;;;;;-144.99;nan;52262.63;5025676;28;20738;-70
2021/05/07 09:41:17;;;;;;;5.90;1.17;;;;;;;-144.99;nan;52311.53;5037579;28;20206;-70
2021/05/07 09:43:43;;;;;;;1.13;0.93;;;;;;;-144.99;nan;52333.94;5035483;28;20214;-71
2021/05/07 09:46:10;;;;;;;2.40;0.90;;;;;;;-144.99;nan;52313.56;5043164;28;20282;-69
2021/05/07 09:48:40;;;;;;;2.97;1.10;;;;;;;-144.99;nan;52280.97;5037364;28;20234;-69
2021/05/07 09:51:12;;;;;;;3.97;1.27;;;;;;;-144.99;nan;52305.41;5036916;28;20480;-69
2021/05/07 09:53:42;;;;;;;4.33;1.03;;;;;;;-144.99;nan;52291.16;5029527;28;20197;-69
2021/05/07 09:56:13;;;;;;;6.00;1.20;;;;;;;-144.99;nan;52297.25;5037261;28;20194;-69
2021/05/07 09:58:39;;;;;;;1.77;0.97;;;;;;;-144.99;nan;52295.22;5042480;28;20287;-69
2021/05/07 10:01:06;;;;;;;3.10;1.83;;;;;;;-144.99;nan;52321.72;5037002;28;20302;-69
2021/05/07 10:03:36;;;;;;;3.63;1.93;;;;;;;-144.99;nan;52309.50;5038759;28;20199;-69
2021/05/07 10:06:02;;;;;;;3.90;1.40;;;;;;;-144.99;nan;52289.13;5033892;28;20236;-70
2021/05/07 10:08:30;;;;;;;8.53;2.87;;;;;;;-144.99;nan;52329.88;5032453;28;20222;-69
2021/05/07 10:10:58;;;;;;;2.73;0.83;;;;;;;-144.99;nan;52333.94;5040520;28;20700;-70
2021/05/07 10:13:29;;;;;;;0.43;0.43;;;;;;;-144.99;nan;52313.56;5041051;28;20224;-69
2021/05/07 10:16:01;;;;;;;3.57;0.70;;;;;;;-144.99;nan;52219.81;5036616;28;20758;-69
2021/05/07 10:18:32;;;;;;;1.30;1.20;;;;;;;-144.99;nan;52219.81;5042655;28;20703;-69
2021/05/07 10:23:33;;;;;;;0.60;0.60;;;;;;;-144.99;nan;52256.50;4997059;28;20216;-72
2021/05/07 10:26:06;;;;;;;2.43;1.17;;;;;;;-144.99;nan;52191.28;4993549;28;20479;-72
2021/05/07 10:28:47;;;;;;;26.00;4.23;;;;;;;-144.99;nan;52227.97;4991465;28;20305;-72
2021/05/07 10:31:15;;;;;;;1.07;0.47;;;;;;;-144.99;nan;52168.84;4990724;28;20208;-73
2021/05/07 10:33:43;;;;;;;2.27;0.77;;;;;;;-144.99;nan;52183.13;4991062;28;20212;-72
2021/05/07 10:36:15;;;;;;;4.17;2.10;;;;;;;-144.99;nan;52174.97;4982875;28;20291;-71
2021/05/07 10:38:48;;;;;;;3.27;0.77;;;;;;;-144.99;nan;52146.44;4985441;28;20238;-72
2021/05/07 10:41:18;;;;;;;2.60;0.50;;;;;;;-144.99;nan;52134.22;4984953;28;20239;-73
2021/05/07 10:43:45;;;;;;;1.40;0.73;;;;;;;-144.99;nan;52117.91;4295906;28;10000539;-73
2021/05/07 10:46:22;;;;;;;1.60;1.00;;;;;;;-144.99;nan;52113.84;4982751;28;20235;-72
2021/05/07 10:48:52;;;;;;;1.13;0.67;;;;;;;-144.99;nan;52289.13;4986147;28;20732;-72
2021/05/07 10:51:18;;;;;;;1.23;0.83;;;;;;;-144.99;nan;52262.63;4980883;28;20258;-72
2021/05/07 10:53:45;;;;;;;2.93;0.67;;;;;;;-144.99;nan;52301.34;4990971;28;20285;-73
2021/05/07 10:56:18;;;;;;;5.07;1.00;;;;;;;-144.99;nan;52244.28;4990640;28;20203;-73
2021/05/07 10:58:48;;;;;;;1.27;0.60;;;;;;;-144.99;nan;52132.19;4987739;28;20231;-73
2021/05/07 11:01:26;;;;;;;0.87;0.73;;;;;;;-144.99;nan;52283.00;4983528;28;20339;-73
2021/05/07 11:04:04;;;;;;;2.27;1.07;;;;;;;-144.99;nan;52252.44;4992341;28;20211;-72
2021/05/07 11:06:33;;;;;;;5.27;3.07;;;;;;;-144.99;nan;52134.22;4983226;28;20234;-72
2021/05/07 11:08:59;;;;;;;4.57;1.47;;;;;;;-144.99;nan;52124.03;4981576;28;20520;-76
2021/05/07 11:11:35;;;;;;;4.20;2.10;;;;;;;-144.99;nan;52211.66;4984601;28;20235;-73
2021/05/07 11:14:04;;;;;;;3.93;1.10;;;;;;;-144.99;nan;52150.53;4979862;28;20226;-72
2021/05/07 11:16:39;;;;;;;5.47;1.10;;;;;;;-144.99;nan;52305.41;4985034;28;20207;-75
2021/05/07 11:19:20;;;;;;;2.50;0.90;;;;;;;-144.99;nan;52177.00;4984696;28;20704;-72
2021/05/07 11:21:49;;;;;;;4.23;0.60;;;;;;;-144.99;nan;52128.09;4988571;28;20245;-72
2021/05/07 11:24:21;;;;;;;2.77;1.10;;;;;;;-144.99;nan;52109.75;4988074;28;20208;-75
2021/05/07 11:26:51;;;;;;;2.13;1.03;;;;;;;-144.99;nan;52121.97;4988519;28;20232;-72
2021/05/07 11:29:35;;;;;;;2.17;1.20;;;;;;;-144.99;nan;52134.22;4980967;28;20335;-74
2021/05/07 11:32:12;;;;;;;2.37;1.10;;;;;;;-144.99;nan;52121.97;4984453;28;20212;-73
2021/05/07 11:34:38;;;;;;;3.43;1.13;;;;;;;-144.99;nan;52126.06;4983022;28;20203;-72
2021/05/07 11:37:05;;;;;;;1.73;1.00;;;;;;;-144.99;nan;52101.59;4983376;28;20216;-71
2021/05/07 11:39:36;;;;;;;2.00;0.77;;;;;;;-144.99;nan;52297.25;4990059;28;20713;-74
2021/05/07 11:42:08;;;;;;;3.83;1.37;;;;;;;-144.99;nan;52134.22;4984771;28;20282;-72
2021/05/07 11:44:34;;;;;;;4.23;1.80;;;;;;;-144.99;nan;52097.53;4993408;28;20280;-75